KICL/ICL METAR and TAF weather

Enter ICAO airport designator
Station Type Date Time Source
KICL METAR 2019/06/19 00:55 UTC NOAA

KICL 190055Z AUTO 03005KT 7SM -RA BKN047 BKN070 19/19 A2991 RMK AO2 P0001


Station Type Date Time Source
KICL Decoded METAR 2019/06/19 00:55 UTC NOAA

Clarinda, IA, United States (KICL) 40-43N 095-02W
Jun 18, 2019 - 08:55 PM EDT / 2019.06.19 0055 UTC
Wind: from the NNE (030 degrees) at 6 MPH (5 KT):0
Visibility: 7 mile(s):0
Sky conditions: mostly cloudy
Weather: light rain
Precipitation last hour: 0.01 inches
Temperature: 66 F (19 C)
Dew Point: 66 F (19 C)
Relative Humidity: 100%
Pressure (altimeter): 29.91 in. Hg (1012 hPa)
ob: KICL 190055Z AUTO 03005KT 7SM -RA BKN047 BKN070 19/19 A2991 RMK AO2 P0001
cycle: 1

Station Type Date Time Source
KICL TAF UTC NOAA

Error!

Example: see airport list